Ocean Dalian — VRJG8 — position and weather

sailwx.info

Track history (hours):
 
Tides and Currents Weather Stations Pressure Air Temp Water Temp Dewpoint Dewpoint Depression Visibility Wind Speed Wind Dir Waves Ship Positions

Ocean Dalian

Last reported at 2017-Oct-15 02:29 UTC. Time now 2017-Oct-20 07:19 UTC.
Position N 39°04' W 031°56'.

Length 225 m; draft 8.3 m.

Type: Cargo ship. MMSI: 477424800.

Date/timePositionNaut miles runAvg speedWind from/ knotsBaromVisibWave heightAir tempDewpointWater temp
2017-Oct-15 02:29N 39°04' W 031°56'511.1
2017-Oct-15 02:00N 39°05' W 031°49'611.2
2017-Oct-15 01:30N 39°06' W 031°42'611.2
2017-Oct-15 01:00N 39°07' W 031°34'511.0
2017-Oct-15 00:30N 39°07' W 031°27'611.1
2017-Oct-15 00:00N 39°08' W 031°20'611.3
2017-Oct-14 23:30N 39°09' W 031°13'611.6
2017-Oct-14 23:00N 39°10' W 031°06'611.9
2017-Oct-14 22:30N 39°11' W 030°58'612.1
2017-Oct-14 22:00N 39°12' W 030°51'611.8
2017-Oct-14 21:30N 39°13' W 030°43'611.5
2017-Oct-14 21:00N 39°14' W 030°36'611.3
2017-Oct-14 20:29N 39°15' W 030°28'611.3
2017-Oct-14 19:55N 39°16' W 030°20'3911.0
2017-Oct-14 16:23N 39°23' W 029°31'1611.5
2017-Oct-14 14:59N 39°26' W 029°10'5011.4
2017-Oct-14 10:38N 39°35' W 028°07'20011.9
2017-Oct-13 17:52N 39°02' W 023°53'613.1
2017-Oct-13 17:25N 39°00' W 023°45'2813.3
2017-Oct-13 15:19N 38°54' W 023°11'413.0
2017-Oct-13 14:59N 38°53' W 023°05'60113.6
2017-Oct-11 18:56N 36°32' W 010°47'1713.5
2017-Oct-11 17:40N 36°28' W 010°27'713.5
2017-Oct-11 17:08N 36°26' W 010°18'313.6
2017-Oct-11 16:53N 36°25' W 010°14'22713.5
2017-Oct-11 00:00N 35°58' W 005°34'612.0
2017-Oct-10 23:30N 35°60' W 005°27'611.3
2017-Oct-10 23:01N 36°05' W 005°23'4 1.2
2017-Oct-10 19:50N 36°08' W 005°23'0 0.0
2017-Oct-10 19:26N 36°08' W 005°23'0 0.0
2017-Oct-10 18:59N 36°08' W 005°23'0 0.0
2017-Oct-10 18:17N 36°08' W 005°23'0 0.0
2017-Oct-10 12:41N 36°08' W 005°23'0 0.2
2017-Oct-10 12:29N 36°08' W 005°23'1 2.3
2017-Oct-10 12:00N 36°07' W 005°23'3 6.6
2017-Oct-10 11:30N 36°05' W 005°20'5 9.1
2017-Oct-10 11:00N 36°06' W 005°15'206 7.1
2017-Oct-09 06:06N 36°36' W 001°01'113.3
2017-Oct-09 06:01N 36°36' W 000°60'713.5
2017-Oct-09 05:28N 36°37' W 000°51'613.6
2017-Oct-09 05:01N 36°38' W 000°43'713.7
2017-Oct-09 04:30N 36°39' W 000°34'1013.6
2017-Oct-09 03:48N 36°41' W 000°23'513.5
2017-Oct-09 03:24N 36°42' W 000°16'513.7
2017-Oct-09 03:00N 36°43' W 000°09'713.9
2017-Oct-09 02:30N 36°44' W 000°01'713.9
2017-Oct-09 02:01N 36°45' E 000°08'713.8
2017-Oct-09 01:30N 36°46' E 000°16'713.7
2017-Oct-09 01:00N 36°47' E 000°25'2514.3
2017-Oct-08 23:15N 36°52' E 000°56'314.3
2017-Oct-08 23:00N 36°52' E 000°60'814.4
2017-Oct-08 22:29N 36°53' E 001°09'59111.6
2017-Oct-06 19:34N 36°44' E 013°27'110.9
2017-Oct-06 19:30N 36°44' E 013°28'610.7
2017-Oct-06 18:56N 36°42' E 013°35'610.9
2017-Oct-06 18:25N 36°40' E 013°41'511.1
2017-Oct-06 18:00N 36°38' E 013°47'510.9
2017-Oct-06 17:30N 36°37' E 013°53'510.5
2017-Oct-06 17:00N 36°35' E 013°60'510.8
2017-Oct-06 16:30N 36°33' E 014°06'510.7
2017-Oct-06 16:00N 36°31' E 014°12'510.7
2017-Oct-06 15:30N 36°29' E 014°18'611.2
2017-Oct-06 15:00N 36°28' E 014°25'611.4
2017-Oct-06 14:30N 36°28' E 014°32'611.3
2017-Oct-06 14:00N 36°28' E 014°39'9811.6
2017-Oct-06 05:32N 37°24' E 016°19'012.5
2017-Oct-06 05:30N 37°25' E 016°19'612.3
2017-Oct-06 05:00N 37°29' E 016°24'8712.4
2017-Oct-05 22:02N 38°36' E 017°34'112.7
2017-Oct-05 21:59N 38°37' E 017°35'612.4
2017-Oct-05 21:30N 38°41' E 017°39'1012.4
2017-Oct-05 20:44N 38°49' E 017°47'312.5
2017-Oct-05 20:30N 38°51' E 017°50'1112.5
2017-Oct-05 19:38N 38°59' E 017°59'612.6
2017-Oct-05 19:10N 39°04' E 018°03'412.5
2017-Oct-05 18:51N 39°07' E 018°07'512.3
2017-Oct-05 18:26N 39°11' E 018°11'612.1
2017-Oct-05 17:58N 39°15' E 018°16'612.1
2017-Oct-05 17:28N 39°20' E 018°21'612.4
2017-Oct-05 16:59N 39°25' E 018°26'1912.9
2017-Oct-05 15:30N 39°39' E 018°41'9512.0
2017-Oct-05 07:34N 41°05' E 017°47'413.1
2017-Oct-05 07:15N 41°08' E 017°42'  
Track history (hours):
 
Tides and Currents Weather Stations Pressure Air Temp Water Temp Dewpoint Dewpoint Depression Visibility Wind Speed Wind Dir Waves Ship Positions

Ocean Dalian

Last reported at 2017-Oct-15 02:29 UTC. Time now 2017-Oct-20 07:19 UTC.
Position N 39°04' W 031°56'.

Length 225 m; draft 8.3 m.

Type: Cargo ship. MMSI: 477424800.

Date/timePositionNaut miles runAvg speedWind from/ knotsBaromVisibWave heightAir tempDewpointWater temp
2017-Oct-15 02:29N 39°04' W 031°56'511.1
2017-Oct-15 02:00N 39°05' W 031°49'611.2
2017-Oct-15 01:30N 39°06' W 031°42'611.2
2017-Oct-15 01:00N 39°07' W 031°34'511.0
2017-Oct-15 00:30N 39°07' W 031°27'611.1
2017-Oct-15 00:00N 39°08' W 031°20'611.3
2017-Oct-14 23:30N 39°09' W 031°13'611.6
2017-Oct-14 23:00N 39°10' W 031°06'611.9
2017-Oct-14 22:30N 39°11' W 030°58'612.1
2017-Oct-14 22:00N 39°12' W 030°51'611.8
2017-Oct-14 21:30N 39°13' W 030°43'611.5
2017-Oct-14 21:00N 39°14' W 030°36'611.3
2017-Oct-14 20:29N 39°15' W 030°28'611.3
2017-Oct-14 19:55N 39°16' W 030°20'3911.0
2017-Oct-14 16:23N 39°23' W 029°31'1611.5
2017-Oct-14 14:59N 39°26' W 029°10'5011.4
2017-Oct-14 10:38N 39°35' W 028°07'20011.9
2017-Oct-13 17:52N 39°02' W 023°53'613.1
2017-Oct-13 17:25N 39°00' W 023°45'2813.3
2017-Oct-13 15:19N 38°54' W 023°11'413.0
2017-Oct-13 14:59N 38°53' W 023°05'60113.6
2017-Oct-11 18:56N 36°32' W 010°47'1713.5
2017-Oct-11 17:40N 36°28' W 010°27'713.5
2017-Oct-11 17:08N 36°26' W 010°18'313.6
2017-Oct-11 16:53N 36°25' W 010°14'22713.5
2017-Oct-11 00:00N 35°58' W 005°34'612.0
2017-Oct-10 23:30N 35°60' W 005°27'611.3
2017-Oct-10 23:01N 36°05' W 005°23'4 1.2
2017-Oct-10 19:50N 36°08' W 005°23'0 0.0
2017-Oct-10 19:26N 36°08' W 005°23'0 0.0
2017-Oct-10 18:59N 36°08' W 005°23'0 0.0
2017-Oct-10 18:17N 36°08' W 005°23'0 0.0
2017-Oct-10 12:41N 36°08' W 005°23'0 0.2
2017-Oct-10 12:29N 36°08' W 005°23'1 2.3
2017-Oct-10 12:00N 36°07' W 005°23'3 6.6
2017-Oct-10 11:30N 36°05' W 005°20'5 9.1
2017-Oct-10 11:00N 36°06' W 005°15'206 7.1
2017-Oct-09 06:06N 36°36' W 001°01'113.3
2017-Oct-09 06:01N 36°36' W 000°60'713.5
2017-Oct-09 05:28N 36°37' W 000°51'613.6
2017-Oct-09 05:01N 36°38' W 000°43'713.7
2017-Oct-09 04:30N 36°39' W 000°34'1013.6
2017-Oct-09 03:48N 36°41' W 000°23'513.5
2017-Oct-09 03:24N 36°42' W 000°16'513.7
2017-Oct-09 03:00N 36°43' W 000°09'713.9
2017-Oct-09 02:30N 36°44' W 000°01'713.9
2017-Oct-09 02:01N 36°45' E 000°08'713.8
2017-Oct-09 01:30N 36°46' E 000°16'713.7
2017-Oct-09 01:00N 36°47' E 000°25'2514.3
2017-Oct-08 23:15N 36°52' E 000°56'314.3
2017-Oct-08 23:00N 36°52' E 000°60'814.4
2017-Oct-08 22:29N 36°53' E 001°09'59111.6
2017-Oct-06 19:34N 36°44' E 013°27'110.9
2017-Oct-06 19:30N 36°44' E 013°28'610.7
2017-Oct-06 18:56N 36°42' E 013°35'610.9
2017-Oct-06 18:25N 36°40' E 013°41'511.1
2017-Oct-06 18:00N 36°38' E 013°47'510.9
2017-Oct-06 17:30N 36°37' E 013°53'510.5
2017-Oct-06 17:00N 36°35' E 013°60'510.8
2017-Oct-06 16:30N 36°33' E 014°06'510.7
2017-Oct-06 16:00N 36°31' E 014°12'510.7
2017-Oct-06 15:30N 36°29' E 014°18'611.2
2017-Oct-06 15:00N 36°28' E 014°25'611.4
2017-Oct-06 14:30N 36°28' E 014°32'611.3
2017-Oct-06 14:00N 36°28' E 014°39'9811.6
2017-Oct-06 05:32N 37°24' E 016°19'012.5
2017-Oct-06 05:30N 37°25' E 016°19'612.3
2017-Oct-06 05:00N 37°29' E 016°24'8712.4
2017-Oct-05 22:02N 38°36' E 017°34'112.7
2017-Oct-05 21:59N 38°37' E 017°35'612.4
2017-Oct-05 21:30N 38°41' E 017°39'1012.4
2017-Oct-05 20:44N 38°49' E 017°47'312.5
2017-Oct-05 20:30N 38°51' E 017°50'1112.5
2017-Oct-05 19:38N 38°59' E 017°59'612.6
2017-Oct-05 19:10N 39°04' E 018°03'412.5
2017-Oct-05 18:51N 39°07' E 018°07'512.3
2017-Oct-05 18:26N 39°11' E 018°11'612.1
2017-Oct-05 17:58N 39°15' E 018°16'612.1
2017-Oct-05 17:28N 39°20' E 018°21'612.4
2017-Oct-05 16:59N 39°25' E 018°26'1912.9
2017-Oct-05 15:30N 39°39' E 018°41'9512.0
2017-Oct-05 07:34N 41°05' E 017°47'413.1
2017-Oct-05 07:15N 41°08' E 017°42'  

Dump ship's entire track history